sensor_id;sensor_type;location;lat;lon;timestamp;P1;durP1;ratioP1;P2;durP2;ratioP2
39698;SDS011;25372;50.582;12.250;2023-11-19T00:01:38;9.05;;;4.60;;
39698;SDS011;25372;50.582;12.250;2023-11-19T00:12:00;8.43;;;2.97;;
39698;SDS011;25372;50.582;12.250;2023-11-19T00:22:20;5.07;;;3.80;;
39698;SDS011;25372;50.582;12.250;2023-11-19T00:32:43;7.80;;;4.25;;
39698;SDS011;25372;50.582;12.250;2023-11-19T00:43:05;7.00;;;3.88;;
39698;SDS011;25372;50.582;12.250;2023-11-19T00:53:28;16.42;;;7.85;;
39698;SDS011;25372;50.582;12.250;2023-11-19T01:03:48;13.32;;;5.28;;
39698;SDS011;25372;50.582;12.250;2023-11-19T01:14:10;7.97;;;3.60;;
39698;SDS011;25372;50.582;12.250;2023-11-19T01:24:31;8.85;;;5.40;;
39698;SDS011;25372;50.582;12.250;2023-11-19T01:34:53;7.28;;;3.72;;
39698;SDS011;25372;50.582;12.250;2023-11-19T01:45:19;3.80;;;3.00;;
39698;SDS011;25372;50.582;12.250;2023-11-19T01:55:48;4.90;;;2.75;;
39698;SDS011;25372;50.582;12.250;2023-11-19T02:06:11;6.55;;;2.90;;
39698;SDS011;25372;50.582;12.250;2023-11-19T02:16:34;3.78;;;2.67;;
39698;SDS011;25372;50.582;12.250;2023-11-19T02:26:56;2.40;;;1.80;;
39698;SDS011;25372;50.582;12.250;2023-11-19T02:37:25;4.47;;;1.98;;
39698;SDS011;25372;50.582;12.250;2023-11-19T02:47:47;4.27;;;2.07;;
39698;SDS011;25372;50.582;12.250;2023-11-19T02:58:09;2.97;;;1.45;;
39698;SDS011;25372;50.582;12.250;2023-11-19T03:08:39;2.15;;;1.45;;
39698;SDS011;25372;50.582;12.250;2023-11-19T03:19:01;1.77;;;1.52;;
39698;SDS011;25372;50.582;12.250;2023-11-19T03:29:23;3.00;;;1.48;;
39698;SDS011;25372;50.582;12.250;2023-11-19T03:39:47;1.77;;;1.20;;
39698;SDS011;25372;50.582;12.250;2023-11-19T03:50:08;2.38;;;1.30;;
39698;SDS011;25372;50.582;12.250;2023-11-19T04:00:30;1.05;;;0.80;;
39698;SDS011;25372;50.582;12.250;2023-11-19T04:10:50;1.50;;;1.23;;
39698;SDS011;25372;50.582;12.250;2023-11-19T04:21:13;1.17;;;1.00;;
39698;SDS011;25372;50.582;12.250;2023-11-19T04:31:33;1.33;;;1.05;;
39698;SDS011;25372;50.582;12.250;2023-11-19T04:41:55;1.65;;;1.35;;
39698;SDS011;25372;50.582;12.250;2023-11-19T04:52:16;1.77;;;1.30;;
39698;SDS011;25372;50.582;12.250;2023-11-19T05:02:38;2.67;;;1.60;;
39698;SDS011;25372;50.582;12.250;2023-11-19T05:12:59;1.83;;;1.50;;
39698;SDS011;25372;50.582;12.250;2023-11-19T05:23:21;1.92;;;1.23;;
39698;SDS011;25372;50.582;12.250;2023-11-19T05:33:43;1.92;;;1.55;;
39698;SDS011;25372;50.582;12.250;2023-11-19T05:44:05;3.53;;;1.92;;
39698;SDS011;25372;50.582;12.250;2023-11-19T05:54:26;2.17;;;1.80;;
39698;SDS011;25372;50.582;12.250;2023-11-19T06:04:48;3.65;;;1.52;;
39698;SDS011;25372;50.582;12.250;2023-11-19T06:15:09;5.32;;;2.28;;
39698;SDS011;25372;50.582;12.250;2023-11-19T06:25:32;1.52;;;1.38;;
39698;SDS011;25372;50.582;12.250;2023-11-19T06:35:54;4.97;;;2.73;;
39698;SDS011;25372;50.582;12.250;2023-11-19T06:46:16;6.20;;;2.90;;
39698;SDS011;25372;50.582;12.250;2023-11-19T06:56:37;5.40;;;2.97;;
39698;SDS011;25372;50.582;12.250;2023-11-19T07:06:59;7.43;;;3.42;;
39698;SDS011;25372;50.582;12.250;2023-11-19T07:17:20;4.18;;;2.92;;
39698;SDS011;25372;50.582;12.250;2023-11-19T07:27:45;5.18;;;2.97;;
39698;SDS011;25372;50.582;12.250;2023-11-19T07:38:07;2.07;;;1.83;;
39698;SDS011;25372;50.582;12.250;2023-11-19T07:48:29;7.18;;;2.83;;
39698;SDS011;25372;50.582;12.250;2023-11-19T07:58:51;1.85;;;1.73;;
39698;SDS011;25372;50.582;12.250;2023-11-19T08:09:13;1.77;;;1.10;;
39698;SDS011;25372;50.582;12.250;2023-11-19T08:19:34;1.67;;;1.40;;
39698;SDS011;25372;50.582;12.250;2023-11-19T08:29:56;0.70;;;0.70;;
39698;SDS011;25372;50.582;12.250;2023-11-19T08:40:17;1.75;;;1.00;;
39698;SDS011;25372;50.582;12.250;2023-11-19T08:50:40;0.40;;;0.40;;
39698;SDS011;25372;50.582;12.250;2023-11-19T09:01:01;6.13;;;1.20;;
39698;SDS011;25372;50.582;12.250;2023-11-19T09:11:24;0.50;;;0.50;;
39698;SDS011;25372;50.582;12.250;2023-11-19T09:21:45;2.55;;;1.13;;
39698;SDS011;25372;50.582;12.250;2023-11-19T09:32:09;1.67;;;0.77;;
39698;SDS011;25372;50.582;12.250;2023-11-19T09:42:30;0.60;;;0.60;;
39698;SDS011;25372;50.582;12.250;2023-11-19T09:53:00;0.57;;;0.57;;
39698;SDS011;25372;50.582;12.250;2023-11-19T10:03:21;0.50;;;0.50;;
39698;SDS011;25372;50.582;12.250;2023-11-19T10:13:44;1.35;;;1.15;;
39698;SDS011;25372;50.582;12.250;2023-11-19T10:24:07;1.67;;;0.53;;
39698;SDS011;25372;50.582;12.250;2023-11-19T10:34:29;0.43;;;0.43;;
39698;SDS011;25372;50.582;12.250;2023-11-19T10:44:50;0.55;;;0.50;;
39698;SDS011;25372;50.582;12.250;2023-11-19T10:55:12;4.30;;;1.23;;
39698;SDS011;25372;50.582;12.250;2023-11-19T11:05:37;2.50;;;0.60;;
39698;SDS011;25372;50.582;12.250;2023-11-19T11:16:00;2.72;;;0.80;;
39698;SDS011;25372;50.582;12.250;2023-11-19T11:26:30;2.85;;;1.10;;
39698;SDS011;25372;50.582;12.250;2023-11-19T11:37:10;0.93;;;0.85;;
39698;SDS011;25372;50.582;12.250;2023-11-19T11:58:36;0.90;;;0.80;;
39698;SDS011;25372;50.582;12.250;2023-11-19T12:08:59;2.40;;;0.57;;
39698;SDS011;25372;50.582;12.250;2023-11-19T12:19:22;1.27;;;0.80;;
39698;SDS011;25372;50.582;12.250;2023-11-19T12:29:43;0.63;;;0.63;;
39698;SDS011;25372;50.582;12.250;2023-11-19T12:40:11;1.85;;;0.70;;
39698;SDS011;25372;50.582;12.250;2023-11-19T13:01:15;7.10;;;2.30;;
39698;SDS011;25372;50.582;12.250;2023-11-19T13:11:38;1.52;;;0.90;;
39698;SDS011;25372;50.582;12.250;2023-11-19T13:22:01;1.02;;;0.60;;
39698;SDS011;25372;50.582;12.250;2023-11-19T13:32:22;7.22;;;1.90;;
39698;SDS011;25372;50.582;12.250;2023-11-19T13:42:44;10.20;;;1.55;;
39698;SDS011;25372;50.582;12.250;2023-11-19T13:53:05;6.82;;;1.73;;
39698;SDS011;25372;50.582;12.250;2023-11-19T14:03:27;2.28;;;1.00;;
39698;SDS011;25372;50.582;12.250;2023-11-19T14:13:48;5.88;;;1.23;;
39698;SDS011;25372;50.582;12.250;2023-11-19T14:24:10;1.30;;;0.75;;
39698;SDS011;25372;50.582;12.250;2023-11-19T14:34:31;2.53;;;1.00;;
39698;SDS011;25372;50.582;12.250;2023-11-19T14:44:54;8.00;;;1.30;;
39698;SDS011;25372;50.582;12.250;2023-11-19T14:55:15;6.07;;;2.20;;
39698;SDS011;25372;50.582;12.250;2023-11-19T15:05:37;3.95;;;1.13;;
39698;SDS011;25372;50.582;12.250;2023-11-19T15:15:58;5.43;;;2.30;;
39698;SDS011;25372;50.582;12.250;2023-11-19T15:26:20;4.88;;;1.55;;
39698;SDS011;25372;50.582;12.250;2023-11-19T15:36:41;2.08;;;1.05;;
39698;SDS011;25372;50.582;12.250;2023-11-19T15:47:03;1.27;;;1.17;;
39698;SDS011;25372;50.582;12.250;2023-11-19T15:57:24;2.95;;;0.80;;
39698;SDS011;25372;50.582;12.250;2023-11-19T16:07:46;2.10;;;1.05;;
39698;SDS011;25372;50.582;12.250;2023-11-19T16:18:07;1.13;;;0.82;;
39698;SDS011;25372;50.582;12.250;2023-11-19T16:28:30;1.25;;;0.98;;
39698;SDS011;25372;50.582;12.250;2023-11-19T16:38:51;2.83;;;1.13;;
39698;SDS011;25372;50.582;12.250;2023-11-19T16:49:13;0.88;;;0.63;;
39698;SDS011;25372;50.582;12.250;2023-11-19T16:59:35;0.68;;;0.68;;
39698;SDS011;25372;50.582;12.250;2023-11-19T17:09:58;1.25;;;1.10;;
39698;SDS011;25372;50.582;12.250;2023-11-19T17:20:19;7.40;;;1.40;;
39698;SDS011;25372;50.582;12.250;2023-11-19T17:30:41;2.63;;;1.27;;
39698;SDS011;25372;50.582;12.250;2023-11-19T17:41:02;1.92;;;1.65;;
39698;SDS011;25372;50.582;12.250;2023-11-19T17:51:24;2.63;;;1.15;;
39698;SDS011;25372;50.582;12.250;2023-11-19T18:01:45;4.22;;;1.65;;
39698;SDS011;25372;50.582;12.250;2023-11-19T18:12:07;1.92;;;1.40;;
39698;SDS011;25372;50.582;12.250;2023-11-19T18:22:28;1.10;;;0.80;;
39698;SDS011;25372;50.582;12.250;2023-11-19T18:32:51;2.50;;;0.95;;
39698;SDS011;25372;50.582;12.250;2023-11-19T18:43:14;0.80;;;0.70;;
39698;SDS011;25372;50.582;12.250;2023-11-19T18:53:37;2.63;;;1.40;;
39698;SDS011;25372;50.582;12.250;2023-11-19T19:03:58;2.55;;;2.05;;
39698;SDS011;25372;50.582;12.250;2023-11-19T19:14:20;2.45;;;1.20;;
39698;SDS011;25372;50.582;12.250;2023-11-19T19:24:40;4.43;;;1.85;;
39698;SDS011;25372;50.582;12.250;2023-11-19T19:35:03;6.93;;;1.40;;
39698;SDS011;25372;50.582;12.250;2023-11-19T19:45:24;2.92;;;2.03;;
39698;SDS011;25372;50.582;12.250;2023-11-19T19:55:46;5.28;;;2.17;;
39698;SDS011;25372;50.582;12.250;2023-11-19T20:06:07;2.40;;;1.17;;
39698;SDS011;25372;50.582;12.250;2023-11-19T20:16:32;2.15;;;0.80;;
39698;SDS011;25372;50.582;12.250;2023-11-19T20:26:54;2.17;;;1.67;;
39698;SDS011;25372;50.582;12.250;2023-11-19T20:37:16;4.97;;;1.35;;
39698;SDS011;25372;50.582;12.250;2023-11-19T20:47:37;1.00;;;0.70;;
39698;SDS011;25372;50.582;12.250;2023-11-19T20:58:00;2.90;;;0.90;;
39698;SDS011;25372;50.582;12.250;2023-11-19T21:08:21;1.10;;;0.77;;
39698;SDS011;25372;50.582;12.250;2023-11-19T21:18:43;2.75;;;1.27;;
39698;SDS011;25372;50.582;12.250;2023-11-19T21:29:04;4.75;;;1.27;;
39698;SDS011;25372;50.582;12.250;2023-11-19T21:39:26;1.20;;;0.75;;
39698;SDS011;25372;50.582;12.250;2023-11-19T21:49:49;1.90;;;0.60;;
39698;SDS011;25372;50.582;12.250;2023-11-19T22:00:12;1.50;;;0.60;;
39698;SDS011;25372;50.582;12.250;2023-11-19T22:10:35;1.70;;;1.08;;
39698;SDS011;25372;50.582;12.250;2023-11-19T22:20:58;3.30;;;1.83;;
39698;SDS011;25372;50.582;12.250;2023-11-19T22:31:20;1.15;;;1.05;;
39698;SDS011;25372;50.582;12.250;2023-11-19T22:41:42;1.70;;;0.93;;
39698;SDS011;25372;50.582;12.250;2023-11-19T22:52:03;2.05;;;0.98;;
39698;SDS011;25372;50.582;12.250;2023-11-19T23:02:26;4.47;;;0.70;;
39698;SDS011;25372;50.582;12.250;2023-11-19T23:12:49;5.83;;;1.03;;
39698;SDS011;25372;50.582;12.250;2023-11-19T23:23:11;1.17;;;1.08;;
39698;SDS011;25372;50.582;12.250;2023-11-19T23:33:32;1.38;;;0.77;;
39698;SDS011;25372;50.582;12.250;2023-11-19T23:43:54;1.67;;;0.63;;
39698;SDS011;25372;50.582;12.250;2023-11-19T23:54:14;0.60;;;0.60;;
